Terminal Aerodrome Forecast
Issued by NWS

Home | Current Version | Previous Version | Text Only | Print | Product List | Glossary On
Versions: 1 2 3 4 5 6 7 8 9 10 11 12 13
000
FTUS46 KPDT 240540
TAFPSC
TAF
KPSC 240540Z 2406/2506 23010KT P6SM BKN080 BKN100
     FM240800 25011KT P6SM VCSH BKN060 BKN100
     FM241000 25007KT P6SM -RA BKN060 BKN100
     FM250200 25010KT P6SM VCSH BKN060 BKN100=

USA.gov is the U.S. government's official web portal to all federal, state and local government web resources and services.